Tipton, Oklahoma
Current Conditions -  °F | °C
As of 5:58 PM on Friday 21 Nov 2014 (Local Time) from KLTS Reporting Station
Clear Clear  
Wind Chill:   Ceiling: Unl
Heat Index:   Visibility: 10mi
Dew Point:   Wind: 6mph
Humidity: 83%   Direction: 340°NNW
Pressure: 30.02"   Gusts: NA
Location:  34.5°N, 99.14°W
Report Text: KLTS 212358Z AUTO 34005KT 10SM CLR 09/06 A3002 RMK AO2 SLP169 T00880061 10130 20085 53002 $
Loading
Personal Weather Stations






























Interactive Weather Map New forecast layout! Learn more

10-Day Weather Forecast

Advertisements
Track Severe Weather on mobile